sensor_id;sensor_type;location;lat;lon;timestamp;P1;durP1;ratioP1;P2;durP2;ratioP2
9836;SDS011;4957;51.412;6.724;2023-02-26T00:01:01;4.77;;;2.03;;
9836;SDS011;4957;51.412;6.724;2023-02-26T00:03:36;3.80;;;2.00;;
9836;SDS011;4957;51.412;6.724;2023-02-26T00:06:05;7.13;;;2.73;;
9836;SDS011;4957;51.412;6.724;2023-02-26T00:08:31;8.63;;;2.00;;
9836;SDS011;4957;51.412;6.724;2023-02-26T00:10:57;6.43;;;2.30;;
9836;SDS011;4957;51.412;6.724;2023-02-26T00:13:25;6.33;;;2.20;;
9836;SDS011;4957;51.412;6.724;2023-02-26T00:15:54;8.00;;;2.10;;
9836;SDS011;4957;51.412;6.724;2023-02-26T00:18:23;4.23;;;2.10;;
9836;SDS011;4957;51.412;6.724;2023-02-26T00:20:49;8.70;;;2.20;;
9836;SDS011;4957;51.412;6.724;2023-02-26T00:23:15;6.43;;;2.40;;
9836;SDS011;4957;51.412;6.724;2023-02-26T00:25:42;4.40;;;2.20;;
9836;SDS011;4957;51.412;6.724;2023-02-26T00:28:09;7.40;;;1.90;;
9836;SDS011;4957;51.412;6.724;2023-02-26T00:30:36;7.23;;;1.90;;
9836;SDS011;4957;51.412;6.724;2023-02-26T00:33:04;4.37;;;1.80;;
9836;SDS011;4957;51.412;6.724;2023-02-26T00:35:31;9.03;;;1.80;;
9836;SDS011;4957;51.412;6.724;2023-02-26T00:38:09;8.40;;;2.23;;
9836;SDS011;4957;51.412;6.724;2023-02-26T00:40:42;8.77;;;3.10;;
9836;SDS011;4957;51.412;6.724;2023-02-26T00:43:19;9.97;;;3.10;;
9836;SDS011;4957;51.412;6.724;2023-02-26T00:46:06;6.17;;;2.30;;
9836;SDS011;4957;51.412;6.724;2023-02-26T00:53:57;2.57;;;1.40;;
9836;SDS011;4957;51.412;6.724;2023-02-26T00:56:26;6.17;;;1.70;;
9836;SDS011;4957;51.412;6.724;2023-02-26T00:58:52;4.93;;;1.90;;
9836;SDS011;4957;51.412;6.724;2023-02-26T01:01:18;5.60;;;1.77;;
9836;SDS011;4957;51.412;6.724;2023-02-26T01:03:43;5.07;;;1.90;;
9836;SDS011;4957;51.412;6.724;2023-02-26T01:06:10;6.70;;;1.87;;
9836;SDS011;4957;51.412;6.724;2023-02-26T01:08:44;3.67;;;1.57;;
9836;SDS011;4957;51.412;6.724;2023-02-26T01:11:17;1.90;;;1.20;;
9836;SDS011;4957;51.412;6.724;2023-02-26T01:13:43;4.77;;;1.50;;
9836;SDS011;4957;51.412;6.724;2023-02-26T01:16:11;7.47;;;1.90;;
9836;SDS011;4957;51.412;6.724;2023-02-26T01:18:43;3.67;;;1.60;;
9836;SDS011;4957;51.412;6.724;2023-02-26T01:21:16;2.43;;;1.23;;
9836;SDS011;4957;51.412;6.724;2023-02-26T01:23:48;3.20;;;1.47;;
9836;SDS011;4957;51.412;6.724;2023-02-26T01:28:52;5.67;;;2.00;;
9836;SDS011;4957;51.412;6.724;2023-02-26T01:42:46;4.13;;;2.20;;
9836;SDS011;4957;51.412;6.724;2023-02-26T01:45:16;8.10;;;2.07;;
9836;SDS011;4957;51.412;6.724;2023-02-26T01:48:47;4.80;;;2.17;;
9836;SDS011;4957;51.412;6.724;2023-02-26T01:50:44;4.03;;;1.70;;
9836;SDS011;4957;51.412;6.724;2023-02-26T01:53:19;2.70;;;1.47;;
9836;SDS011;4957;51.412;6.724;2023-02-26T01:55:57;4.33;;;1.27;;
9836;SDS011;4957;51.412;6.724;2023-02-26T01:58:27;3.33;;;1.53;;
9836;SDS011;4957;51.412;6.724;2023-02-26T02:00:57;3.60;;;1.23;;
9836;SDS011;4957;51.412;6.724;2023-02-26T02:03:23;1.17;;;0.90;;
9836;SDS011;4957;51.412;6.724;2023-02-26T02:05:55;2.80;;;1.40;;
9836;SDS011;4957;51.412;6.724;2023-02-26T02:08:27;6.43;;;2.07;;
9836;SDS011;4957;51.412;6.724;2023-02-26T02:10:54;3.63;;;1.37;;
9836;SDS011;4957;51.412;6.724;2023-02-26T02:13:27;4.27;;;1.83;;
9836;SDS011;4957;51.412;6.724;2023-02-26T02:18:44;7.40;;;2.27;;
9836;SDS011;4957;51.412;6.724;2023-02-26T02:21:27;5.13;;;1.70;;
9836;SDS011;4957;51.412;6.724;2023-02-26T02:40:21;5.40;;;2.13;;
9836;SDS011;4957;51.412;6.724;2023-02-26T02:43:12;7.13;;;1.90;;
9836;SDS011;4957;51.412;6.724;2023-02-26T02:48:23;2.37;;;1.70;;
9836;SDS011;4957;51.412;6.724;2023-02-26T02:50:57;5.73;;;1.63;;
9836;SDS011;4957;51.412;6.724;2023-02-26T02:53:36;4.47;;;1.70;;
9836;SDS011;4957;51.412;6.724;2023-02-26T02:56:05;6.20;;;2.27;;
9836;SDS011;4957;51.412;6.724;2023-02-26T02:58:47;4.07;;;2.40;;
9836;SDS011;4957;51.412;6.724;2023-02-26T03:01:18;3.70;;;1.80;;
9836;SDS011;4957;51.412;6.724;2023-02-26T03:06:43;8.07;;;2.23;;
9836;SDS011;4957;51.412;6.724;2023-02-26T03:09:10;4.73;;;2.23;;
9836;SDS011;4957;51.412;6.724;2023-02-26T03:11:36;6.13;;;2.40;;
9836;SDS011;4957;51.412;6.724;2023-02-26T03:14:02;5.50;;;1.77;;
9836;SDS011;4957;51.412;6.724;2023-02-26T03:16:39;4.63;;;1.67;;
9836;SDS011;4957;51.412;6.724;2023-02-26T03:19:22;3.10;;;1.40;;
9836;SDS011;4957;51.412;6.724;2023-02-26T03:22:02;4.87;;;1.63;;
9836;SDS011;4957;51.412;6.724;2023-02-26T03:29:52;8.80;;;1.83;;
9836;SDS011;4957;51.412;6.724;2023-02-26T03:34:59;1.60;;;1.50;;
9836;SDS011;4957;51.412;6.724;2023-02-26T03:40:03;3.87;;;1.67;;
9836;SDS011;4957;51.412;6.724;2023-02-26T03:42:46;3.50;;;1.70;;
9836;SDS011;4957;51.412;6.724;2023-02-26T03:45:17;1.50;;;1.40;;
9836;SDS011;4957;51.412;6.724;2023-02-26T03:47:48;2.50;;;1.20;;
9836;SDS011;4957;51.412;6.724;2023-02-26T03:50:21;1.50;;;1.20;;
9836;SDS011;4957;51.412;6.724;2023-02-26T03:52:48;3.13;;;1.23;;
9836;SDS011;4957;51.412;6.724;2023-02-26T03:55:17;4.90;;;1.50;;
9836;SDS011;4957;51.412;6.724;2023-02-26T03:57:46;3.47;;;1.40;;
9836;SDS011;4957;51.412;6.724;2023-02-26T04:00:13;2.47;;;1.10;;
9836;SDS011;4957;51.412;6.724;2023-02-26T04:02:48;3.03;;;1.40;;
9836;SDS011;4957;51.412;6.724;2023-02-26T04:05:22;1.63;;;1.50;;
9836;SDS011;4957;51.412;6.724;2023-02-26T04:07:57;3.20;;;1.20;;
9836;SDS011;4957;51.412;6.724;2023-02-26T04:10:43;2.07;;;1.53;;
9836;SDS011;4957;51.412;6.724;2023-02-26T04:13:17;5.77;;;1.50;;
9836;SDS011;4957;51.412;6.724;2023-02-26T04:15:42;5.43;;;1.47;;
9836;SDS011;4957;51.412;6.724;2023-02-26T04:18:08;2.40;;;1.40;;
9836;SDS011;4957;51.412;6.724;2023-02-26T04:20:34;2.53;;;1.00;;
9836;SDS011;4957;51.412;6.724;2023-02-26T04:22:59;3.13;;;1.30;;
9836;SDS011;4957;51.412;6.724;2023-02-26T04:25:25;2.63;;;1.57;;
9836;SDS011;4957;51.412;6.724;2023-02-26T04:27:51;3.83;;;1.67;;
9836;SDS011;4957;51.412;6.724;2023-02-26T04:30:16;7.57;;;2.57;;
9836;SDS011;4957;51.412;6.724;2023-02-26T04:32:42;6.80;;;2.70;;
9836;SDS011;4957;51.412;6.724;2023-02-26T04:35:08;10.00;;;3.10;;
9836;SDS011;4957;51.412;6.724;2023-02-26T04:37:34;7.03;;;3.07;;
9836;SDS011;4957;51.412;6.724;2023-02-26T04:40:00;7.20;;;2.50;;
9836;SDS011;4957;51.412;6.724;2023-02-26T04:42:25;8.67;;;3.00;;
9836;SDS011;4957;51.412;6.724;2023-02-26T04:44:51;9.03;;;2.73;;
9836;SDS011;4957;51.412;6.724;2023-02-26T04:47:17;5.37;;;2.57;;
9836;SDS011;4957;51.412;6.724;2023-02-26T04:49:42;8.50;;;2.63;;
9836;SDS011;4957;51.412;6.724;2023-02-26T04:52:08;7.70;;;2.17;;
9836;SDS011;4957;51.412;6.724;2023-02-26T04:54:34;2.50;;;1.60;;
9836;SDS011;4957;51.412;6.724;2023-02-26T04:56:59;5.23;;;2.10;;
9836;SDS011;4957;51.412;6.724;2023-02-26T04:59:25;3.53;;;2.30;;
9836;SDS011;4957;51.412;6.724;2023-02-26T05:01:51;3.17;;;1.80;;
9836;SDS011;4957;51.412;6.724;2023-02-26T05:04:17;2.30;;;1.90;;
9836;SDS011;4957;51.412;6.724;2023-02-26T05:06:43;2.80;;;1.63;;
9836;SDS011;4957;51.412;6.724;2023-02-26T05:09:08;3.97;;;1.60;;
9836;SDS011;4957;51.412;6.724;2023-02-26T05:11:34;1.73;;;1.20;;
9836;SDS011;4957;51.412;6.724;2023-02-26T05:14:00;3.93;;;1.50;;
9836;SDS011;4957;51.412;6.724;2023-02-26T05:16:25;4.87;;;1.27;;
9836;SDS011;4957;51.412;6.724;2023-02-26T05:18:51;3.47;;;1.30;;
9836;SDS011;4957;51.412;6.724;2023-02-26T05:21:17;5.63;;;1.23;;
9836;SDS011;4957;51.412;6.724;2023-02-26T05:23:43;5.90;;;1.27;;
9836;SDS011;4957;51.412;6.724;2023-02-26T05:26:08;1.07;;;0.80;;
9836;SDS011;4957;51.412;6.724;2023-02-26T05:28:34;3.03;;;1.30;;
9836;SDS011;4957;51.412;6.724;2023-02-26T05:31:00;2.20;;;1.20;;
9836;SDS011;4957;51.412;6.724;2023-02-26T05:33:26;2.40;;;1.00;;
9836;SDS011;4957;51.412;6.724;2023-02-26T05:35:52;1.37;;;0.90;;
9836;SDS011;4957;51.412;6.724;2023-02-26T05:38:18;6.47;;;1.20;;
9836;SDS011;4957;51.412;6.724;2023-02-26T05:40:44;6.43;;;1.43;;
9836;SDS011;4957;51.412;6.724;2023-02-26T05:43:10;3.73;;;1.63;;
9836;SDS011;4957;51.412;6.724;2023-02-26T05:45:36;7.63;;;1.23;;
9836;SDS011;4957;51.412;6.724;2023-02-26T05:48:01;4.33;;;1.43;;
9836;SDS011;4957;51.412;6.724;2023-02-26T05:50:27;1.70;;;1.23;;
9836;SDS011;4957;51.412;6.724;2023-02-26T05:52:54;5.00;;;1.33;;
9836;SDS011;4957;51.412;6.724;2023-02-26T05:55:20;5.27;;;1.77;;
9836;SDS011;4957;51.412;6.724;2023-02-26T05:57:46;5.10;;;1.40;;
9836;SDS011;4957;51.412;6.724;2023-02-26T06:00:12;5.53;;;1.93;;
9836;SDS011;4957;51.412;6.724;2023-02-26T06:02:38;5.03;;;1.83;;
9836;SDS011;4957;51.412;6.724;2023-02-26T06:05:05;7.17;;;1.97;;
9836;SDS011;4957;51.412;6.724;2023-02-26T06:07:31;3.83;;;1.70;;
9836;SDS011;4957;51.412;6.724;2023-02-26T06:09:57;4.80;;;2.03;;
9836;SDS011;4957;51.412;6.724;2023-02-26T06:12:23;8.83;;;2.20;;
9836;SDS011;4957;51.412;6.724;2023-02-26T06:14:49;3.90;;;1.97;;
9836;SDS011;4957;51.412;6.724;2023-02-26T06:17:15;3.97;;;2.03;;
9836;SDS011;4957;51.412;6.724;2023-02-26T06:19:41;6.67;;;2.60;;
9836;SDS011;4957;51.412;6.724;2023-02-26T06:22:07;7.93;;;2.40;;
9836;SDS011;4957;51.412;6.724;2023-02-26T06:24:33;3.10;;;1.93;;
9836;SDS011;4957;51.412;6.724;2023-02-26T06:26:59;3.40;;;1.63;;
9836;SDS011;4957;51.412;6.724;2023-02-26T06:29:24;3.93;;;2.33;;
9836;SDS011;4957;51.412;6.724;2023-02-26T06:31:50;2.87;;;1.60;;
9836;SDS011;4957;51.412;6.724;2023-02-26T06:34:16;2.63;;;1.27;;
9836;SDS011;4957;51.412;6.724;2023-02-26T06:36:42;2.80;;;1.83;;
9836;SDS011;4957;51.412;6.724;2023-02-26T06:39:09;4.90;;;1.80;;
9836;SDS011;4957;51.412;6.724;2023-02-26T06:41:36;3.07;;;1.50;;
9836;SDS011;4957;51.412;6.724;2023-02-26T06:44:02;3.47;;;1.97;;
9836;SDS011;4957;51.412;6.724;2023-02-26T06:46:31;4.60;;;2.37;;
9836;SDS011;4957;51.412;6.724;2023-02-26T06:48:57;4.27;;;1.90;;
9836;SDS011;4957;51.412;6.724;2023-02-26T06:51:24;3.63;;;2.17;;
9836;SDS011;4957;51.412;6.724;2023-02-26T06:53:50;3.93;;;2.33;;
9836;SDS011;4957;51.412;6.724;2023-02-26T06:56:15;4.03;;;2.00;;
9836;SDS011;4957;51.412;6.724;2023-02-26T06:58:41;5.00;;;2.00;;
9836;SDS011;4957;51.412;6.724;2023-02-26T07:01:07;3.87;;;1.77;;
9836;SDS011;4957;51.412;6.724;2023-02-26T07:03:33;3.27;;;1.87;;
9836;SDS011;4957;51.412;6.724;2023-02-26T07:05:58;3.53;;;1.40;;
9836;SDS011;4957;51.412;6.724;2023-02-26T07:08:24;5.47;;;1.50;;
9836;SDS011;4957;51.412;6.724;2023-02-26T07:10:50;1.63;;;1.30;;
9836;SDS011;4957;51.412;6.724;2023-02-26T07:13:16;1.20;;;1.20;;
9836;SDS011;4957;51.412;6.724;2023-02-26T07:15:42;7.13;;;2.00;;
9836;SDS011;4957;51.412;6.724;2023-02-26T07:18:08;2.50;;;1.87;;
9836;SDS011;4957;51.412;6.724;2023-02-26T07:20:33;5.87;;;1.53;;
9836;SDS011;4957;51.412;6.724;2023-02-26T07:22:59;4.70;;;1.03;;
9836;SDS011;4957;51.412;6.724;2023-02-26T07:25:27;1.97;;;1.03;;
9836;SDS011;4957;51.412;6.724;2023-02-26T07:27:54;4.83;;;1.20;;
9836;SDS011;4957;51.412;6.724;2023-02-26T07:30:20;1.37;;;1.07;;
9836;SDS011;4957;51.412;6.724;2023-02-26T07:32:46;2.10;;;1.07;;
9836;SDS011;4957;51.412;6.724;2023-02-26T07:35:12;1.20;;;1.10;;
9836;SDS011;4957;51.412;6.724;2023-02-26T07:37:37;3.10;;;1.27;;
9836;SDS011;4957;51.412;6.724;2023-02-26T07:40:04;2.40;;;1.17;;
9836;SDS011;4957;51.412;6.724;2023-02-26T07:42:32;3.17;;;1.20;;
9836;SDS011;4957;51.412;6.724;2023-02-26T07:44:58;3.33;;;0.93;;
9836;SDS011;4957;51.412;6.724;2023-02-26T07:47:24;1.57;;;1.27;;
9836;SDS011;4957;51.412;6.724;2023-02-26T07:49:51;1.43;;;1.00;;
9836;SDS011;4957;51.412;6.724;2023-02-26T07:52:16;5.17;;;2.40;;
9836;SDS011;4957;51.412;6.724;2023-02-26T07:54:42;7.33;;;2.10;;
9836;SDS011;4957;51.412;6.724;2023-02-26T07:57:08;5.33;;;2.63;;
9836;SDS011;4957;51.412;6.724;2023-02-26T07:59:33;5.67;;;2.50;;
9836;SDS011;4957;51.412;6.724;2023-02-26T08:01:59;12.63;;;4.70;;
9836;SDS011;4957;51.412;6.724;2023-02-26T08:04:25;15.67;;;4.47;;
9836;SDS011;4957;51.412;6.724;2023-02-26T08:06:51;8.47;;;3.93;;
9836;SDS011;4957;51.412;6.724;2023-02-26T08:09:19;9.03;;;3.67;;
9836;SDS011;4957;51.412;6.724;2023-02-26T08:11:45;3.97;;;1.60;;
9836;SDS011;4957;51.412;6.724;2023-02-26T08:14:12;3.93;;;1.80;;
9836;SDS011;4957;51.412;6.724;2023-02-26T08:16:37;6.80;;;2.57;;
9836;SDS011;4957;51.412;6.724;2023-02-26T08:19:06;6.27;;;2.60;;
9836;SDS011;4957;51.412;6.724;2023-02-26T08:21:31;4.63;;;1.80;;
9836;SDS011;4957;51.412;6.724;2023-02-26T08:23:57;6.70;;;2.47;;
9836;SDS011;4957;51.412;6.724;2023-02-26T08:26:23;4.43;;;2.30;;
9836;SDS011;4957;51.412;6.724;2023-02-26T08:28:49;5.27;;;2.47;;
9836;SDS011;4957;51.412;6.724;2023-02-26T08:31:15;15.03;;;5.37;;
9836;SDS011;4957;51.412;6.724;2023-02-26T08:33:40;12.63;;;4.00;;
9836;SDS011;4957;51.412;6.724;2023-02-26T08:36:06;6.00;;;3.03;;
9836;SDS011;4957;51.412;6.724;2023-02-26T08:38:32;5.07;;;2.27;;
9836;SDS011;4957;51.412;6.724;2023-02-26T08:40:58;6.10;;;2.43;;
9836;SDS011;4957;51.412;6.724;2023-02-26T08:43:24;10.63;;;3.43;;
9836;SDS011;4957;51.412;6.724;2023-02-26T08:45:54;6.83;;;3.03;;
9836;SDS011;4957;51.412;6.724;2023-02-26T08:48:20;8.30;;;2.23;;
9836;SDS011;4957;51.412;6.724;2023-02-26T08:50:47;13.00;;;3.83;;
9836;SDS011;4957;51.412;6.724;2023-02-26T08:53:12;4.53;;;1.97;;
9836;SDS011;4957;51.412;6.724;2023-02-26T08:55:41;7.57;;;3.30;;
9836;SDS011;4957;51.412;6.724;2023-02-26T08:58:09;6.20;;;2.33;;
9836;SDS011;4957;51.412;6.724;2023-02-26T09:00:35;4.47;;;1.30;;
9836;SDS011;4957;51.412;6.724;2023-02-26T09:03:01;3.53;;;1.30;;
9836;SDS011;4957;51.412;6.724;2023-02-26T09:05:27;1.33;;;0.90;;
9836;SDS011;4957;51.412;6.724;2023-02-26T09:07:52;6.03;;;2.40;;
9836;SDS011;4957;51.412;6.724;2023-02-26T09:10:18;5.60;;;1.90;;
9836;SDS011;4957;51.412;6.724;2023-02-26T09:12:44;1.57;;;1.40;;
9836;SDS011;4957;51.412;6.724;2023-02-26T09:15:11;6.50;;;2.27;;
9836;SDS011;4957;51.412;6.724;2023-02-26T09:17:38;9.37;;;2.67;;
9836;SDS011;4957;51.412;6.724;2023-02-26T09:20:06;5.30;;;2.10;;
9836;SDS011;4957;51.412;6.724;2023-02-26T09:22:33;5.27;;;1.83;;
9836;SDS011;4957;51.412;6.724;2023-02-26T09:24:59;4.43;;;1.30;;
9836;SDS011;4957;51.412;6.724;2023-02-26T09:27:25;7.67;;;1.40;;
9836;SDS011;4957;51.412;6.724;2023-02-26T09:29:51;8.33;;;2.00;;
9836;SDS011;4957;51.412;6.724;2023-02-26T09:32:18;5.93;;;1.50;;
9836;SDS011;4957;51.412;6.724;2023-02-26T09:34:44;3.67;;;1.53;;
9836;SDS011;4957;51.412;6.724;2023-02-26T09:37:10;3.27;;;1.60;;
9836;SDS011;4957;51.412;6.724;2023-02-26T09:39:36;2.43;;;1.27;;
9836;SDS011;4957;51.412;6.724;2023-02-26T09:44:52;7.27;;;1.90;;
9836;SDS011;4957;51.412;6.724;2023-02-26T09:47:26;3.40;;;1.50;;
9836;SDS011;4957;51.412;6.724;2023-02-26T09:54:55;2.83;;;1.07;;
9836;SDS011;4957;51.412;6.724;2023-02-26T09:57:34;1.17;;;0.97;;
9836;SDS011;4957;51.412;6.724;2023-02-26T10:00:06;2.73;;;0.97;;
9836;SDS011;4957;51.412;6.724;2023-02-26T10:14:27;2.97;;;1.47;;
9836;SDS011;4957;51.412;6.724;2023-02-26T10:17:05;2.83;;;1.67;;
9836;SDS011;4957;51.412;6.724;2023-02-26T10:19:42;1.97;;;1.00;;
9836;SDS011;4957;51.412;6.724;2023-02-26T10:24:46;1.27;;;1.00;;
9836;SDS011;4957;51.412;6.724;2023-02-26T10:27:26;3.30;;;1.10;;
9836;SDS011;4957;51.412;6.724;2023-02-26T10:30:04;2.27;;;0.90;;
9836;SDS011;4957;51.412;6.724;2023-02-26T10:35:56;0.70;;;0.63;;
9836;SDS011;4957;51.412;6.724;2023-02-26T10:38:28;1.43;;;1.10;;
9836;SDS011;4957;51.412;6.724;2023-02-26T10:43:47;2.53;;;1.40;;
9836;SDS011;4957;51.412;6.724;2023-02-26T10:46:41;1.27;;;0.90;;
9836;SDS011;4957;51.412;6.724;2023-02-26T10:52:29;2.50;;;1.17;;
9836;SDS011;4957;51.412;6.724;2023-02-26T10:58:04;7.03;;;1.10;;
9836;SDS011;4957;51.412;6.724;2023-02-26T11:00:42;0.73;;;0.67;;
9836;SDS011;4957;51.412;6.724;2023-02-26T11:03:32;0.70;;;0.70;;
9836;SDS011;4957;51.412;6.724;2023-02-26T11:06:01;2.50;;;1.17;;
9836;SDS011;4957;51.412;6.724;2023-02-26T11:08:41;0.70;;;0.47;;
9836;SDS011;4957;51.412;6.724;2023-02-26T11:11:09;1.50;;;1.33;;
9836;SDS011;4957;51.412;6.724;2023-02-26T11:13:37;1.83;;;0.97;;
9836;SDS011;4957;51.412;6.724;2023-02-26T11:16:05;1.27;;;0.90;;
9836;SDS011;4957;51.412;6.724;2023-02-26T11:18:42;2.43;;;1.10;;
9836;SDS011;4957;51.412;6.724;2023-02-26T11:21:16;2.73;;;1.10;;
9836;SDS011;4957;51.412;6.724;2023-02-26T11:23:46;3.20;;;1.10;;
9836;SDS011;4957;51.412;6.724;2023-02-26T11:26:15;2.50;;;1.53;;
9836;SDS011;4957;51.412;6.724;2023-02-26T11:28:46;5.50;;;2.17;;
9836;SDS011;4957;51.412;6.724;2023-02-26T11:31:15;12.40;;;2.00;;
9836;SDS011;4957;51.412;6.724;2023-02-26T11:33:50;3.83;;;1.30;;
9836;SDS011;4957;51.412;6.724;2023-02-26T11:36:28;1.07;;;0.80;;
9836;SDS011;4957;51.412;6.724;2023-02-26T11:38:57;2.27;;;0.97;;
9836;SDS011;4957;51.412;6.724;2023-02-26T11:41:27;1.83;;;0.97;;
9836;SDS011;4957;51.412;6.724;2023-02-26T11:44:01;8.47;;;3.20;;
9836;SDS011;4957;51.412;6.724;2023-02-26T11:46:30;6.23;;;1.50;;
9836;SDS011;4957;51.412;6.724;2023-02-26T11:49:16;1.87;;;0.83;;
9836;SDS011;4957;51.412;6.724;2023-02-26T11:51:45;1.93;;;1.07;;
9836;SDS011;4957;51.412;6.724;2023-02-26T11:54:19;3.80;;;0.80;;
9836;SDS011;4957;51.412;6.724;2023-02-26T11:56:48;4.23;;;1.23;;
9836;SDS011;4957;51.412;6.724;2023-02-26T11:59:22;5.57;;;2.13;;
9836;SDS011;4957;51.412;6.724;2023-02-26T12:01:49;4.77;;;1.80;;
9836;SDS011;4957;51.412;6.724;2023-02-26T12:04:18;6.20;;;1.50;;
9836;SDS011;4957;51.412;6.724;2023-02-26T12:06:46;2.53;;;0.70;;
9836;SDS011;4957;51.412;6.724;2023-02-26T12:09:15;1.63;;;0.70;;
9836;SDS011;4957;51.412;6.724;2023-02-26T12:28:38;3.13;;;1.33;;
9836;SDS011;4957;51.412;6.724;2023-02-26T12:39:53;1.33;;;0.80;;
9836;SDS011;4957;51.412;6.724;2023-02-26T12:42:23;2.47;;;0.87;;
9836;SDS011;4957;51.412;6.724;2023-02-26T12:45:08;3.37;;;0.67;;
9836;SDS011;4957;51.412;6.724;2023-02-26T13:13:58;3.07;;;0.87;;
9836;SDS011;4957;51.412;6.724;2023-02-26T13:21:47;2.67;;;1.40;;
9836;SDS011;4957;51.412;6.724;2023-02-26T13:24:30;2.57;;;1.20;;
9836;SDS011;4957;51.412;6.724;2023-02-26T13:27:01;0.97;;;0.80;;
9836;SDS011;4957;51.412;6.724;2023-02-26T13:29:33;1.63;;;0.60;;
9836;SDS011;4957;51.412;6.724;2023-02-26T13:32:06;1.90;;;1.00;;
9836;SDS011;4957;51.412;6.724;2023-02-26T13:34:44;3.40;;;0.90;;
9836;SDS011;4957;51.412;6.724;2023-02-26T13:37:23;0.90;;;0.70;;
9836;SDS011;4957;51.412;6.724;2023-02-26T13:42:59;2.87;;;0.80;;
9836;SDS011;4957;51.412;6.724;2023-02-26T13:48:59;2.77;;;0.70;;
9836;SDS011;4957;51.412;6.724;2023-02-26T13:51:38;2.20;;;0.70;;
9836;SDS011;4957;51.412;6.724;2023-02-26T13:54:07;2.73;;;0.60;;
9836;SDS011;4957;51.412;6.724;2023-02-26T14:06:58;0.93;;;0.80;;
9836;SDS011;4957;51.412;6.724;2023-02-26T14:09:45;1.23;;;0.67;;
9836;SDS011;4957;51.412;6.724;2023-02-26T14:12:25;1.37;;;0.67;;
9836;SDS011;4957;51.412;6.724;2023-02-26T14:17:48;1.03;;;0.83;;
9836;SDS011;4957;51.412;6.724;2023-02-26T14:25:36;1.37;;;0.57;;
9836;SDS011;4957;51.412;6.724;2023-02-26T14:33:44;1.53;;;0.80;;
9836;SDS011;4957;51.412;6.724;2023-02-26T14:39:23;0.67;;;0.63;;
9836;SDS011;4957;51.412;6.724;2023-02-26T14:41:56;1.40;;;0.90;;
9836;SDS011;4957;51.412;6.724;2023-02-26T14:44:26;1.00;;;0.67;;
9836;SDS011;4957;51.412;6.724;2023-02-26T14:46:57;1.33;;;0.83;;
9836;SDS011;4957;51.412;6.724;2023-02-26T14:49:32;0.70;;;0.70;;
9836;SDS011;4957;51.412;6.724;2023-02-26T15:00:41;1.37;;;1.10;;
9836;SDS011;4957;51.412;6.724;2023-02-26T15:03:32;8.47;;;1.40;;
9836;SDS011;4957;51.412;6.724;2023-02-26T15:11:54;2.80;;;1.63;;
9836;SDS011;4957;51.412;6.724;2023-02-26T15:19:55;6.17;;;1.77;;
9836;SDS011;4957;51.412;6.724;2023-02-26T15:25:30;3.40;;;0.97;;
9836;SDS011;4957;51.412;6.724;2023-02-26T15:28:05;2.30;;;1.40;;
9836;SDS011;4957;51.412;6.724;2023-02-26T15:30:37;5.00;;;2.33;;
9836;SDS011;4957;51.412;6.724;2023-02-26T15:33:09;3.30;;;1.70;;
9836;SDS011;4957;51.412;6.724;2023-02-26T15:35:42;1.20;;;1.03;;
9836;SDS011;4957;51.412;6.724;2023-02-26T15:38:09;2.27;;;1.17;;
9836;SDS011;4957;51.412;6.724;2023-02-26T15:40:35;4.20;;;1.53;;
9836;SDS011;4957;51.412;6.724;2023-02-26T15:43:02;4.50;;;1.40;;
9836;SDS011;4957;51.412;6.724;2023-02-26T15:45:36;22.70;;;7.47;;
9836;SDS011;4957;51.412;6.724;2023-02-26T15:48:17;12.40;;;3.97;;
9836;SDS011;4957;51.412;6.724;2023-02-26T15:50:51;7.50;;;2.47;;
9836;SDS011;4957;51.412;6.724;2023-02-26T15:55:59;2.43;;;1.20;;
9836;SDS011;4957;51.412;6.724;2023-02-26T16:01:02;4.67;;;1.40;;
9836;SDS011;4957;51.412;6.724;2023-02-26T16:03:35;2.23;;;1.03;;
9836;SDS011;4957;51.412;6.724;2023-02-26T16:06:02;9.57;;;3.43;;
9836;SDS011;4957;51.412;6.724;2023-02-26T16:08:41;17.40;;;6.23;;
9836;SDS011;4957;51.412;6.724;2023-02-26T16:11:07;2.37;;;1.57;;
9836;SDS011;4957;51.412;6.724;2023-02-26T16:13:35;3.90;;;2.40;;
9836;SDS011;4957;51.412;6.724;2023-02-26T16:16:06;4.50;;;1.90;;
9836;SDS011;4957;51.412;6.724;2023-02-26T16:18:40;4.83;;;1.30;;
9836;SDS011;4957;51.412;6.724;2023-02-26T16:21:10;1.70;;;1.27;;
9836;SDS011;4957;51.412;6.724;2023-02-26T16:23:48;1.70;;;1.00;;
9836;SDS011;4957;51.412;6.724;2023-02-26T16:26:21;3.97;;;1.20;;
9836;SDS011;4957;51.412;6.724;2023-02-26T16:28:55;1.20;;;1.10;;
9836;SDS011;4957;51.412;6.724;2023-02-26T16:31:25;2.13;;;1.20;;
9836;SDS011;4957;51.412;6.724;2023-02-26T16:36:23;3.80;;;1.30;;
9836;SDS011;4957;51.412;6.724;2023-02-26T16:41:42;2.10;;;1.10;;
9836;SDS011;4957;51.412;6.724;2023-02-26T16:46:54;3.63;;;1.20;;
9836;SDS011;4957;51.412;6.724;2023-02-26T16:49:22;0.80;;;0.80;;
9836;SDS011;4957;51.412;6.724;2023-02-26T16:51:51;1.63;;;1.20;;
9836;SDS011;4957;51.412;6.724;2023-02-26T16:54:18;1.57;;;1.30;;
9836;SDS011;4957;51.412;6.724;2023-02-26T16:56:49;3.10;;;1.37;;
9836;SDS011;4957;51.412;6.724;2023-02-26T16:59:37;2.33;;;1.50;;
9836;SDS011;4957;51.412;6.724;2023-02-26T17:02:15;2.10;;;1.40;;
9836;SDS011;4957;51.412;6.724;2023-02-26T17:04:43;1.77;;;1.67;;
9836;SDS011;4957;51.412;6.724;2023-02-26T17:07:25;3.63;;;2.00;;
9836;SDS011;4957;51.412;6.724;2023-02-26T17:09:57;2.97;;;1.60;;
9836;SDS011;4957;51.412;6.724;2023-02-26T17:12:50;2.60;;;1.40;;
9836;SDS011;4957;51.412;6.724;2023-02-26T17:15:27;2.87;;;1.60;;
9836;SDS011;4957;51.412;6.724;2023-02-26T17:17:54;2.77;;;1.40;;
9836;SDS011;4957;51.412;6.724;2023-02-26T17:20:25;2.37;;;1.20;;
9836;SDS011;4957;51.412;6.724;2023-02-26T17:22:52;1.43;;;1.33;;
9836;SDS011;4957;51.412;6.724;2023-02-26T17:25:20;1.87;;;1.20;;
9836;SDS011;4957;51.412;6.724;2023-02-26T17:27:46;1.00;;;0.80;;
9836;SDS011;4957;51.412;6.724;2023-02-26T17:30:19;3.10;;;1.40;;
9836;SDS011;4957;51.412;6.724;2023-02-26T17:32:48;4.90;;;1.30;;
9836;SDS011;4957;51.412;6.724;2023-02-26T17:35:15;3.07;;;1.57;;
9836;SDS011;4957;51.412;6.724;2023-02-26T17:37:44;5.17;;;1.80;;
9836;SDS011;4957;51.412;6.724;2023-02-26T17:40:25;3.63;;;2.10;;
9836;SDS011;4957;51.412;6.724;2023-02-26T17:42:53;4.23;;;2.27;;
9836;SDS011;4957;51.412;6.724;2023-02-26T17:45:21;4.47;;;1.93;;
9836;SDS011;4957;51.412;6.724;2023-02-26T17:47:46;5.27;;;2.23;;
9836;SDS011;4957;51.412;6.724;2023-02-26T17:53:14;5.70;;;2.70;;
9836;SDS011;4957;51.412;6.724;2023-02-26T17:55:41;2.77;;;2.07;;
9836;SDS011;4957;51.412;6.724;2023-02-26T17:58:13;2.07;;;1.53;;
9836;SDS011;4957;51.412;6.724;2023-02-26T18:00:41;6.37;;;1.97;;
9836;SDS011;4957;51.412;6.724;2023-02-26T18:03:09;4.73;;;1.70;;
9836;SDS011;4957;51.412;6.724;2023-02-26T18:05:35;4.50;;;2.30;;
9836;SDS011;4957;51.412;6.724;2023-02-26T18:08:04;5.03;;;2.53;;
9836;SDS011;4957;51.412;6.724;2023-02-26T18:10:30;4.87;;;1.97;;
9836;SDS011;4957;51.412;6.724;2023-02-26T18:12:56;4.87;;;3.10;;
9836;SDS011;4957;51.412;6.724;2023-02-26T18:15:24;9.93;;;4.50;;
9836;SDS011;4957;51.412;6.724;2023-02-26T18:17:50;9.40;;;4.53;;
9836;SDS011;4957;51.412;6.724;2023-02-26T18:20:19;7.03;;;3.50;;
9836;SDS011;4957;51.412;6.724;2023-02-26T18:22:47;8.17;;;3.30;;
9836;SDS011;4957;51.412;6.724;2023-02-26T18:25:14;4.30;;;2.43;;
9836;SDS011;4957;51.412;6.724;2023-02-26T18:27:40;4.63;;;3.20;;
9836;SDS011;4957;51.412;6.724;2023-02-26T18:30:10;9.00;;;2.97;;
9836;SDS011;4957;51.412;6.724;2023-02-26T18:32:44;6.63;;;3.13;;
9836;SDS011;4957;51.412;6.724;2023-02-26T18:35:10;7.73;;;3.87;;
9836;SDS011;4957;51.412;6.724;2023-02-26T18:37:35;5.97;;;3.07;;
9836;SDS011;4957;51.412;6.724;2023-02-26T18:40:01;8.37;;;3.67;;
9836;SDS011;4957;51.412;6.724;2023-02-26T18:42:27;7.47;;;3.70;;
9836;SDS011;4957;51.412;6.724;2023-02-26T18:44:53;6.13;;;2.93;;
9836;SDS011;4957;51.412;6.724;2023-02-26T18:47:20;9.53;;;3.27;;
9836;SDS011;4957;51.412;6.724;2023-02-26T18:49:46;3.73;;;2.33;;
9836;SDS011;4957;51.412;6.724;2023-02-26T18:52:14;4.30;;;2.57;;
9836;SDS011;4957;51.412;6.724;2023-02-26T18:54:40;4.07;;;1.93;;
9836;SDS011;4957;51.412;6.724;2023-02-26T18:57:06;3.90;;;1.53;;
9836;SDS011;4957;51.412;6.724;2023-02-26T18:59:33;1.37;;;1.23;;
9836;SDS011;4957;51.412;6.724;2023-02-26T19:01:59;3.27;;;2.80;;
9836;SDS011;4957;51.412;6.724;2023-02-26T19:04:26;3.97;;;2.00;;
9836;SDS011;4957;51.412;6.724;2023-02-26T19:06:52;2.00;;;1.73;;
9836;SDS011;4957;51.412;6.724;2023-02-26T19:09:18;1.87;;;1.77;;